createdAt,value
2019-02-16T00:00:35.532Z,12.60
2019-02-16T00:01:35.488Z,12.60
2019-02-16T00:02:35.499Z,13.40
2019-02-16T00:03:36.223Z,12.90
2019-02-16T00:04:35.457Z,13.40
2019-02-16T00:05:35.442Z,13.40
2019-02-16T00:06:35.474Z,15.20
2019-02-16T00:07:34.420Z,13.70
2019-02-16T00:08:35.409Z,12.10
2019-02-16T00:09:34.437Z,12.90
2019-02-16T00:10:35.384Z,10.40
2019-02-16T00:11:34.380Z,12.80
2019-02-16T00:12:35.364Z,12.80
2019-02-16T00:13:35.357Z,13.90
2019-02-16T00:14:34.350Z,12.40
2019-02-16T00:15:35.379Z,13.60
2019-02-16T00:16:35.329Z,13.90
2019-02-16T00:17:35.312Z,12.90
2019-02-16T00:18:35.303Z,13.00
2019-02-16T00:19:35.298Z,13.00
2019-02-16T00:20:35.284Z,14.20
2019-02-16T00:21:35.320Z,14.00
2019-02-16T00:22:34.260Z,13.30
2019-02-16T00:24:34.240Z,14.70
2019-02-16T00:25:35.258Z,13.70
2019-02-16T00:26:35.246Z,13.20
2019-02-16T00:27:35.202Z,17.30
2019-02-16T00:28:35.202Z,15.80
2019-02-16T00:29:35.185Z,13.50
2019-02-16T00:30:34.171Z,18.80
2019-02-16T00:31:35.178Z,14.30
2019-02-16T00:32:35.176Z,12.50
2019-02-16T00:33:35.142Z,14.20
2019-02-16T00:34:35.120Z,12.70
2019-02-16T00:35:34.129Z,11.80
2019-02-16T00:36:35.112Z,13.10
2019-02-16T00:37:35.099Z,15.00
2019-02-16T00:38:35.091Z,13.50
2019-02-16T00:39:35.082Z,12.30
2019-02-16T00:40:35.065Z,12.30
2019-02-16T00:41:35.050Z,11.80
2019-02-16T00:42:35.040Z,12.00
2019-02-16T00:43:35.026Z,12.80
2019-02-16T00:44:35.061Z,12.30
2019-02-16T00:45:37.496Z,12.30
2019-02-16T00:46:35.002Z,11.50
2019-02-16T00:47:34.982Z,12.10
2019-02-16T00:48:34.972Z,12.70
2019-02-16T00:49:33.974Z,14.20
2019-02-16T00:50:33.957Z,11.80
2019-02-16T00:51:34.974Z,11.30
2019-02-16T00:52:34.932Z,14.10
2019-02-16T00:53:34.924Z,15.20
2019-02-16T00:54:34.926Z,13.80
2019-02-16T00:55:35.542Z,15.30
2019-02-16T00:56:34.896Z,12.60
2019-02-16T00:57:33.880Z,12.00
2019-02-16T00:58:34.867Z,12.60
2019-02-16T00:59:33.864Z,14.50
2019-02-16T01:00:33.886Z,14.00
2019-02-16T01:01:37.492Z,15.00
2019-02-16T01:02:34.820Z,11.90
2019-02-16T01:03:33.809Z,12.40
2019-02-16T01:04:34.804Z,13.30
2019-02-16T01:05:34.796Z,13.50
2019-02-16T01:06:34.784Z,15.30
2019-02-16T01:07:33.764Z,16.00
2019-02-16T01:08:33.758Z,14.00
2019-02-16T01:09:34.783Z,14.40
2019-02-16T01:10:34.740Z,15.30
2019-02-16T01:11:33.726Z,14.20
2019-02-16T01:12:33.714Z,12.90
2019-02-16T01:13:33.706Z,17.40
2019-02-16T01:14:34.702Z,13.60
2019-02-16T01:15:34.715Z,15.00
2019-02-16T01:16:34.674Z,14.60
2019-02-16T01:17:33.667Z,13.50
2019-02-16T01:18:33.653Z,14.20
2019-02-16T01:19:34.636Z,15.20
2019-02-16T01:20:38.487Z,13.10
2019-02-16T01:21:34.612Z,12.80
2019-02-16T01:22:33.608Z,13.40
2019-02-16T01:23:34.594Z,13.60
2019-02-16T01:24:34.577Z,13.70
2019-02-16T01:25:37.484Z,12.40
2019-02-16T01:26:34.565Z,15.40
2019-02-16T01:27:33.557Z,13.50
2019-02-16T01:28:34.538Z,13.60
2019-02-16T01:29:34.531Z,14.00
2019-02-16T01:30:34.533Z,11.60
2019-02-16T01:31:34.549Z,13.70
2019-02-16T01:32:33.513Z,12.00
2019-02-16T01:33:34.494Z,12.80
2019-02-16T01:34:33.485Z,14.10
2019-02-16T01:35:34.479Z,14.50
2019-02-16T01:36:34.481Z,12.20
2019-02-16T01:37:34.462Z,13.70
2019-02-16T01:38:33.445Z,12.10
2019-02-16T01:39:35.979Z,12.40
2019-02-16T01:40:33.424Z,14.90
2019-02-16T01:41:34.432Z,12.70
2019-02-16T01:42:34.402Z,15.60
2019-02-16T01:43:34.394Z,12.60
2019-02-16T01:44:34.380Z,11.90
2019-02-16T01:45:33.354Z,14.90
2019-02-16T01:46:34.386Z,17.10
2019-02-16T01:47:34.344Z,15.40
2019-02-16T01:48:33.333Z,14.60
2019-02-16T01:49:34.361Z,13.70
2019-02-16T01:50:33.300Z,14.80
2019-02-16T01:51:33.300Z,15.00
2019-02-16T01:52:34.288Z,14.60
2019-02-16T01:53:34.280Z,15.40
2019-02-16T01:54:34.262Z,14.20
2019-02-16T01:55:34.294Z,17.30
2019-02-16T01:56:33.287Z,13.90
2019-02-16T01:57:34.230Z,17.00
2019-02-16T01:58:34.227Z,18.50
2019-02-16T01:59:33.218Z,14.00
2019-02-16T02:00:34.203Z,19.30
2019-02-16T02:02:33.202Z,16.30
2019-02-16T02:03:34.167Z,16.70
2019-02-16T02:04:34.156Z,13.10
2019-02-16T02:05:34.146Z,14.30
2019-02-16T02:06:34.146Z,15.10
2019-02-16T02:07:33.158Z,14.60
2019-02-16T02:08:36.975Z,14.00
2019-02-16T02:09:34.973Z,14.70
2019-02-16T02:10:33.093Z,13.20
2019-02-16T02:11:34.082Z,12.90
2019-02-16T02:12:34.115Z,14.40
2019-02-16T02:13:34.057Z,15.40
2019-02-16T02:14:34.066Z,16.30
2019-02-16T02:15:34.048Z,15.80
2019-02-16T02:16:33.032Z,13.70
2019-02-16T02:17:34.030Z,15.30
2019-02-16T02:18:34.045Z,14.80
2019-02-16T02:19:33.994Z,12.00
2019-02-16T02:20:32.984Z,13.90
2019-02-16T02:21:40.979Z,12.30
2019-02-16T02:22:36.479Z,12.50
2019-02-16T02:23:33.951Z,14.30
2019-02-16T02:24:33.970Z,12.50
2019-02-16T02:25:32.938Z,14.50
2019-02-16T02:26:33.926Z,13.70
2019-02-16T02:27:33.904Z,13.00
2019-02-16T02:28:33.897Z,14.00
2019-02-16T02:29:33.891Z,12.00
2019-02-16T02:30:33.901Z,15.60
2019-02-16T02:31:32.890Z,12.50
2019-02-16T02:32:32.863Z,13.10
2019-02-16T02:33:32.846Z,12.80
2019-02-16T02:34:33.846Z,12.70
2019-02-16T02:35:33.836Z,13.00
2019-02-16T02:36:32.811Z,13.50
2019-02-16T02:37:33.812Z,12.50
2019-02-16T02:38:33.792Z,14.60
2019-02-16T02:39:32.813Z,16.60
2019-02-16T02:40:33.770Z,14.80
2019-02-16T02:41:32.763Z,13.40
2019-02-16T02:42:33.750Z,12.50
2019-02-16T02:43:33.739Z,16.30
2019-02-16T02:45:32.710Z,12.90
2019-02-16T02:46:33.702Z,12.30
2019-02-16T02:47:33.710Z,13.50
2019-02-16T02:48:33.674Z,14.20
2019-02-16T02:49:33.672Z,14.10
2019-02-16T02:50:33.696Z,13.80
2019-02-16T02:51:32.662Z,16.10
2019-02-16T02:52:36.461Z,15.80
2019-02-16T02:53:33.626Z,16.50
2019-02-16T02:54:33.616Z,18.30
2019-02-16T02:56:32.639Z,17.60
2019-02-16T02:57:32.584Z,17.60
2019-02-16T02:58:33.578Z,17.00
2019-02-16T02:59:32.570Z,16.40
2019-02-16T03:00:33.557Z,17.00
2019-02-16T03:01:32.541Z,17.30
2019-02-16T03:02:33.572Z,18.00
2019-02-16T03:03:33.518Z,18.10
2019-02-16T03:04:33.519Z,18.70
2019-02-16T03:05:33.494Z,18.50
2019-02-16T03:06:32.488Z,18.80
2019-02-16T03:07:33.488Z,19.80
2019-02-16T03:08:33.468Z,19.60
2019-02-16T03:09:33.458Z,18.70
2019-02-16T03:10:34.113Z,18.80
2019-02-16T03:11:32.452Z,16.20
2019-02-16T03:12:33.457Z,19.30
2019-02-16T03:13:33.409Z,20.60
2019-02-16T03:14:32.409Z,19.50
2019-02-16T03:15:33.390Z,20.70
2019-02-16T03:16:33.378Z,20.00
2019-02-16T03:17:34.004Z,19.90
2019-02-16T03:18:33.364Z,23.50
2019-02-16T03:19:33.350Z,17.80
2019-02-16T03:20:33.335Z,20.00
2019-02-16T03:21:33.330Z,18.60
2019-02-16T03:22:32.342Z,19.90
2019-02-16T03:23:33.352Z,19.60
2019-02-16T03:24:32.293Z,20.10
2019-02-16T03:25:33.288Z,22.70
2019-02-16T03:26:33.266Z,20.10
2019-02-16T03:27:32.268Z,19.60
2019-02-16T03:28:33.249Z,22.50
2019-02-16T03:29:33.279Z,20.80
2019-02-16T03:30:32.229Z,21.40
2019-02-16T03:31:33.218Z,20.40
2019-02-16T03:32:33.254Z,20.80
2019-02-16T03:33:33.193Z,22.00
2019-02-16T03:34:33.186Z,19.80
2019-02-16T03:35:33.170Z,19.20
2019-02-16T03:36:33.159Z,19.00
2019-02-16T03:37:32.147Z,20.20
2019-02-16T03:38:33.169Z,19.20
2019-02-16T03:39:33.122Z,19.40
2019-02-16T03:40:33.120Z,19.60
2019-02-16T03:41:32.109Z,18.10
2019-02-16T03:42:33.100Z,18.90
2019-02-16T03:43:33.089Z,20.90
2019-02-16T03:44:32.126Z,20.90
2019-02-16T03:45:33.062Z,18.70
2019-02-16T03:46:33.052Z,22.80
2019-02-16T03:47:33.039Z,22.40
2019-02-16T03:48:32.028Z,23.10
2019-02-16T03:49:34.936Z,21.20
2019-02-16T03:50:33.032Z,21.50
2019-02-16T03:51:33.003Z,21.10
2019-02-16T03:52:33.006Z,25.00
2019-02-16T03:53:32.983Z,23.90
2019-02-16T03:54:32.972Z,22.00
2019-02-16T03:55:32.962Z,21.80
2019-02-16T03:56:32.945Z,23.50
2019-02-16T03:57:31.952Z,21.80
2019-02-16T03:58:32.920Z,24.50
2019-02-16T03:59:33.483Z,22.70
2019-02-16T04:00:32.907Z,23.60
2019-02-16T04:01:32.890Z,22.70
2019-02-16T04:02:32.884Z,24.90
2019-02-16T04:03:32.440Z,24.90
2019-02-16T04:04:31.863Z,22.00
2019-02-16T04:05:32.866Z,28.70
2019-02-16T04:06:31.847Z,22.60
2019-02-16T04:07:32.830Z,22.00
2019-02-16T04:08:32.839Z,25.90
2019-02-16T04:09:31.804Z,24.70
2019-02-16T04:10:32.790Z,24.60
2019-02-16T04:11:32.786Z,23.10
2019-02-16T04:12:32.768Z,23.00
2019-02-16T04:13:32.762Z,22.70
2019-02-16T04:14:31.783Z,23.50
2019-02-16T04:15:32.740Z,21.60
2019-02-16T04:16:31.721Z,23.60
2019-02-16T04:17:32.736Z,22.00
2019-02-16T04:18:32.703Z,21.70
2019-02-16T04:19:31.684Z,23.20
2019-02-16T04:20:32.707Z,22.90
2019-02-16T04:21:32.661Z,22.40
2019-02-16T04:22:32.672Z,23.10
2019-02-16T04:23:31.643Z,24.10
2019-02-16T04:24:32.642Z,23.30
2019-02-16T04:25:32.652Z,23.90
2019-02-16T04:26:32.620Z,24.40
2019-02-16T04:27:32.598Z,27.00
2019-02-16T04:28:32.584Z,23.00
2019-02-16T04:29:32.577Z,24.50
2019-02-16T04:30:31.606Z,21.40
2019-02-16T04:31:32.572Z,23.40
2019-02-16T04:32:32.550Z,21.50
2019-02-16T04:33:31.545Z,22.20
2019-02-16T04:34:32.522Z,23.80
2019-02-16T04:35:31.969Z,25.20
2019-02-16T04:36:32.510Z,26.00
2019-02-16T04:37:32.490Z,25.90
2019-02-16T04:38:32.482Z,22.00
2019-02-16T04:39:34.421Z,23.50
2019-02-16T04:40:32.492Z,23.20
2019-02-16T04:41:32.451Z,24.60
2019-02-16T04:42:32.446Z,24.80
2019-02-16T04:43:32.433Z,24.30
2019-02-16T04:44:32.414Z,25.50
2019-02-16T04:45:32.438Z,22.20
2019-02-16T04:46:32.396Z,24.40
2019-02-16T04:47:31.385Z,23.90
2019-02-16T04:48:32.368Z,24.60
2019-02-16T04:49:32.361Z,21.80
2019-02-16T04:50:32.351Z,22.80
2019-02-16T04:51:32.376Z,27.70
2019-02-16T04:52:35.083Z,25.30
2019-02-16T04:53:32.324Z,25.20
2019-02-16T04:54:32.301Z,24.50
2019-02-16T04:55:32.310Z,28.60
2019-02-16T04:56:31.284Z,24.40
2019-02-16T04:57:31.305Z,24.90
2019-02-16T04:58:32.256Z,23.60
2019-02-16T04:59:32.252Z,24.20
2019-02-16T05:00:32.241Z,24.20
2019-02-16T05:01:31.239Z,27.00
2019-02-16T05:02:32.240Z,25.20
2019-02-16T05:03:32.206Z,28.20
2019-02-16T05:04:31.202Z,25.50
2019-02-16T05:05:32.196Z,26.10
2019-02-16T05:06:31.170Z,25.50
2019-02-16T05:07:32.188Z,26.40
2019-02-16T05:08:32.913Z,26.40
2019-02-16T05:09:32.142Z,26.50
2019-02-16T05:10:32.130Z,26.60
2019-02-16T05:11:32.130Z,26.80
2019-02-16T05:12:31.113Z,28.90
2019-02-16T05:13:31.126Z,28.30
2019-02-16T05:14:32.090Z,28.10
2019-02-16T05:15:31.099Z,25.00
2019-02-16T05:16:32.128Z,26.10
2019-02-16T05:17:32.054Z,26.20
2019-02-16T05:18:32.043Z,26.60
2019-02-16T05:19:32.042Z,27.40
2019-02-16T05:20:32.026Z,26.30
2019-02-16T05:21:32.064Z,26.10
2019-02-16T05:22:32.005Z,28.10
2019-02-16T05:23:31.990Z,26.40
2019-02-16T05:24:30.981Z,26.80
2019-02-16T05:25:31.974Z,36.20
2019-02-16T05:26:31.954Z,32.00
2019-02-16T05:27:30.976Z,31.80
2019-02-16T05:28:31.937Z,30.10
2019-02-16T05:29:31.928Z,29.70
2019-02-16T05:30:31.916Z,31.90
2019-02-16T05:31:30.910Z,32.50
2019-02-16T05:32:33.442Z,28.20
2019-02-16T05:33:33.401Z,30.20
2019-02-16T05:34:30.877Z,28.80
2019-02-16T05:35:31.864Z,28.00
2019-02-16T05:36:31.852Z,27.70
2019-02-16T05:37:30.844Z,27.20
2019-02-16T05:38:31.862Z,29.00
2019-02-16T05:39:31.815Z,28.90
2019-02-16T05:40:31.803Z,28.30
2019-02-16T05:41:30.802Z,31.20
2019-02-16T05:42:30.816Z,31.90
2019-02-16T05:43:33.394Z,32.10
2019-02-16T05:44:31.761Z,29.10
2019-02-16T05:45:30.790Z,28.20
2019-02-16T05:46:30.741Z,32.70
2019-02-16T05:47:30.733Z,29.30
2019-02-16T05:48:31.724Z,28.30
2019-02-16T05:49:31.709Z,29.70
2019-02-16T05:50:31.750Z,30.10
2019-02-16T05:51:31.686Z,27.90
2019-02-16T05:52:31.707Z,29.90
2019-02-16T05:53:31.673Z,27.60
2019-02-16T05:54:31.666Z,32.50
2019-02-16T05:55:31.811Z,30.30
2019-02-16T05:57:30.617Z,30.20
2019-02-16T05:58:31.610Z,27.30
2019-02-16T05:59:31.601Z,27.60
2019-02-16T06:00:31.609Z,29.00
2019-02-16T06:01:32.440Z,30.40
2019-02-16T06:02:31.567Z,41.90
2019-02-16T06:03:31.560Z,36.80
2019-02-16T06:04:31.542Z,30.80
2019-02-16T06:05:31.534Z,29.00
2019-02-16T06:06:31.540Z,31.00
2019-02-16T06:07:31.543Z,28.60
2019-02-16T06:08:31.500Z,27.40
2019-02-16T06:09:30.494Z,27.90
2019-02-16T06:10:30.488Z,30.40
2019-02-16T06:11:31.474Z,30.00
2019-02-16T06:12:30.461Z,27.90
2019-02-16T06:13:31.474Z,30.00
2019-02-16T06:14:30.436Z,33.00
2019-02-16T06:15:31.478Z,30.20
2019-02-16T06:16:31.417Z,30.10
2019-02-16T06:17:30.410Z,31.60
2019-02-16T06:19:30.383Z,32.20
2019-02-16T06:20:31.370Z,33.20
2019-02-16T06:21:31.392Z,30.60
2019-02-16T06:22:31.350Z,31.40
2019-02-16T06:23:31.347Z,31.00
2019-02-16T06:25:30.363Z,31.40
2019-02-16T06:27:30.323Z,31.90
2019-02-16T06:28:30.289Z,32.00
2019-02-16T06:29:30.281Z,32.60
2019-02-16T06:30:30.265Z,32.10
2019-02-16T06:31:31.254Z,32.60
2019-02-16T06:32:32.878Z,29.90
2019-02-16T06:33:31.264Z,31.60
2019-02-16T06:34:32.429Z,32.90
2019-02-16T06:35:32.878Z,34.10
2019-02-16T06:36:31.206Z,35.00
2019-02-16T06:37:31.184Z,33.30
2019-02-16T06:38:31.181Z,33.60
2019-02-16T06:39:31.170Z,34.80
2019-02-16T06:40:32.920Z,36.80
2019-02-16T06:41:31.144Z,33.10
2019-02-16T06:42:31.130Z,37.80
2019-02-16T06:43:31.879Z,35.10
2019-02-16T06:44:30.108Z,34.40
2019-02-16T06:45:31.105Z,38.30
2019-02-16T06:46:31.130Z,36.90
2019-02-16T06:47:31.084Z,32.70
2019-02-16T06:48:30.085Z,33.60
2019-02-16T06:49:30.055Z,32.10
2019-02-16T06:50:36.684Z,37.20
2019-02-16T06:51:31.035Z,34.60
2019-02-16T06:52:31.051Z,36.40
2019-02-16T06:53:31.008Z,37.00
2019-02-16T06:54:30.003Z,36.60
2019-02-16T06:55:31.012Z,36.70
2019-02-16T06:56:30.012Z,35.40
2019-02-16T06:57:33.874Z,34.00
2019-02-16T06:58:29.956Z,34.50
2019-02-16T06:59:30.949Z,37.30
2019-02-16T07:00:30.946Z,36.90
2019-02-16T07:01:30.952Z,34.80
2019-02-16T07:02:29.917Z,36.20
2019-02-16T07:03:30.908Z,36.30
2019-02-16T07:04:29.899Z,37.00
2019-02-16T07:05:29.888Z,35.00
2019-02-16T07:07:29.914Z,37.40
2019-02-16T07:08:30.852Z,36.20
2019-02-16T07:09:30.840Z,34.60
2019-02-16T07:10:30.831Z,38.10
2019-02-16T07:11:30.838Z,39.60
2019-02-16T07:13:29.799Z,35.50
2019-02-16T07:14:33.368Z,37.10
2019-02-16T07:15:30.776Z,38.80
2019-02-16T07:16:31.421Z,35.30
2019-02-16T07:17:30.744Z,38.20
2019-02-16T07:19:32.364Z,38.70
2019-02-16T07:20:29.717Z,36.00
2019-02-16T07:21:29.710Z,37.00
2019-02-16T07:22:29.732Z,38.50
2019-02-16T07:23:30.686Z,37.50
2019-02-16T07:24:30.672Z,41.00
2019-02-16T07:25:30.662Z,37.40
2019-02-16T07:26:30.656Z,40.10
2019-02-16T07:28:29.627Z,41.50
2019-02-16T07:29:29.622Z,40.40
2019-02-16T07:30:30.358Z,41.50
2019-02-16T07:31:30.603Z,37.10
2019-02-16T07:32:30.594Z,37.90
2019-02-16T07:33:32.400Z,38.30
2019-02-16T07:34:30.566Z,37.10
2019-02-16T07:35:30.566Z,39.50
2019-02-16T07:36:30.573Z,40.20
2019-02-16T07:37:29.534Z,40.10
2019-02-16T07:38:30.530Z,39.90
2019-02-16T07:39:29.518Z,39.30
2019-02-16T07:40:29.500Z,39.80
2019-02-16T07:41:30.519Z,37.00
2019-02-16T07:42:30.487Z,38.60
2019-02-16T07:43:29.478Z,42.00
2019-02-16T07:44:30.467Z,38.70
2019-02-16T07:45:29.454Z,39.10
2019-02-16T07:46:29.442Z,36.60
2019-02-16T07:47:30.462Z,37.70
2019-02-16T07:48:29.414Z,39.90
2019-02-16T07:49:30.400Z,40.40
2019-02-16T07:50:30.394Z,40.90
2019-02-16T07:51:30.374Z,37.00
2019-02-16T07:52:29.405Z,41.40
2019-02-16T07:53:31.545Z,36.30
2019-02-16T07:54:32.858Z,41.30
2019-02-16T07:56:29.858Z,35.10
2019-02-16T07:57:30.433Z,37.30
2019-02-16T07:58:30.301Z,38.20
2019-02-16T07:59:30.294Z,39.90
2019-02-16T08:00:30.279Z,38.40
2019-02-16T08:01:30.271Z,37.60
2019-02-16T08:02:30.266Z,38.20
2019-02-16T08:03:30.292Z,37.30
2019-02-16T08:04:30.244Z,34.90
2019-02-16T08:05:30.227Z,38.30
2019-02-16T08:06:29.236Z,36.90
2019-02-16T08:07:29.218Z,39.30
2019-02-16T08:08:30.197Z,41.10
2019-02-16T08:09:30.231Z,40.00
2019-02-16T08:10:30.176Z,39.40
2019-02-16T08:11:32.849Z,35.90
2019-02-16T08:12:30.158Z,38.90
2019-02-16T08:13:30.138Z,41.80
2019-02-16T08:14:29.130Z,42.60
2019-02-16T08:16:29.126Z,42.40
2019-02-16T08:17:30.099Z,40.00
2019-02-16T08:18:30.085Z,41.20
2019-02-16T08:19:30.072Z,41.20
2019-02-16T08:20:29.083Z,39.70
2019-02-16T08:21:30.111Z,38.00
2019-02-16T08:22:30.047Z,39.40
2019-02-16T08:23:29.039Z,41.10
2019-02-16T08:24:30.028Z,39.30
2019-02-16T08:25:30.006Z,37.30
2019-02-16T08:26:30.034Z,40.80
2019-02-16T08:27:29.995Z,38.20
2019-02-16T08:28:29.979Z,38.90
2019-02-16T08:29:28.970Z,38.20
2019-02-16T08:30:29.974Z,45.60
2019-02-16T08:31:28.955Z,37.40
2019-02-16T08:32:29.973Z,38.80
2019-02-16T08:33:29.939Z,39.10
2019-02-16T08:34:29.914Z,44.30
2019-02-16T08:35:29.903Z,42.10
2019-02-16T08:36:28.899Z,37.70
2019-02-16T08:37:29.923Z,43.00
2019-02-16T08:38:28.869Z,40.00
2019-02-16T08:39:28.859Z,40.30
2019-02-16T08:40:29.852Z,41.00
2019-02-16T08:41:28.837Z,39.80
2019-02-16T08:42:28.835Z,37.80
2019-02-16T08:43:29.823Z,41.80
2019-02-16T08:44:29.811Z,39.60
2019-02-16T08:45:29.792Z,40.80
2019-02-16T08:46:29.775Z,40.80
2019-02-16T08:47:28.775Z,38.50
2019-02-16T08:48:29.769Z,42.00
2019-02-16T08:49:28.775Z,42.20
2019-02-16T08:50:29.738Z,44.10
2019-02-16T08:51:28.729Z,41.00
2019-02-16T08:52:29.723Z,38.60
2019-02-16T08:53:29.703Z,38.50
2019-02-16T08:54:29.728Z,41.90
2019-02-16T08:55:29.695Z,39.70
2019-02-16T08:56:29.687Z,39.10
2019-02-16T08:57:29.671Z,39.10
2019-02-16T08:58:29.658Z,45.70
2019-02-16T08:59:29.641Z,42.60
2019-02-16T09:00:28.655Z,43.00
2019-02-16T09:01:29.630Z,41.80
2019-02-16T09:02:29.617Z,43.70
2019-02-16T09:03:29.603Z,45.00
2019-02-16T09:04:29.589Z,44.00
2019-02-16T09:05:29.599Z,43.30
2019-02-16T09:06:28.567Z,47.00
2019-02-16T09:07:29.550Z,42.10
2019-02-16T09:08:28.551Z,41.10
2019-02-16T09:09:28.531Z,38.90
2019-02-16T09:10:28.564Z,41.90
2019-02-16T09:11:29.509Z,42.90
2019-02-16T09:12:29.498Z,40.50
2019-02-16T09:13:29.523Z,45.80
2019-02-16T09:14:29.478Z,44.10
2019-02-16T09:15:29.467Z,38.60
2019-02-16T09:16:29.460Z,42.10
2019-02-16T09:17:29.445Z,46.60
2019-02-16T09:18:29.445Z,39.60
2019-02-16T09:19:28.427Z,40.00
2019-02-16T09:20:29.412Z,41.20
2019-02-16T09:21:28.399Z,37.40
2019-02-16T09:22:29.387Z,41.10
2019-02-16T09:23:28.393Z,43.20
2019-02-16T09:24:29.417Z,41.80
2019-02-16T09:25:29.357Z,40.10
2019-02-16T09:26:29.348Z,37.00
2019-02-16T09:27:28.343Z,44.80
2019-02-16T09:28:29.820Z,38.60
2019-02-16T09:29:29.350Z,40.60
2019-02-16T09:30:29.311Z,40.30
2019-02-16T09:31:29.291Z,37.70
2019-02-16T09:32:29.289Z,40.50
2019-02-16T09:33:28.273Z,39.50
2019-02-16T09:34:29.295Z,40.50
2019-02-16T09:35:29.257Z,36.40
2019-02-16T09:36:29.249Z,41.70
2019-02-16T09:37:28.869Z,40.20
2019-02-16T09:38:29.271Z,39.20
2019-02-16T09:39:29.211Z,39.90
2019-02-16T09:40:29.197Z,41.30
2019-02-16T09:41:29.183Z,41.00
2019-02-16T09:42:29.201Z,39.70
2019-02-16T09:43:29.173Z,42.50
2019-02-16T09:44:29.365Z,39.10
2019-02-16T09:45:29.144Z,42.10
2019-02-16T09:46:29.140Z,42.30
2019-02-16T09:47:29.121Z,40.60
2019-02-16T09:48:28.111Z,42.50
2019-02-16T09:49:29.129Z,38.10
2019-02-16T09:50:28.317Z,48.60
2019-02-16T09:51:28.072Z,44.00
2019-02-16T09:52:29.066Z,42.30
2019-02-16T09:53:29.053Z,38.00
2019-02-16T09:54:29.046Z,46.70
2019-02-16T09:55:28.080Z,36.80
2019-02-16T09:56:29.027Z,40.40
2019-02-16T09:57:29.028Z,38.40
2019-02-16T09:58:28.999Z,43.90
2019-02-16T09:59:28.999Z,41.00
2019-02-16T10:00:29.011Z,39.90
2019-02-16T10:01:29.019Z,38.40
2019-02-16T10:02:27.961Z,35.10
2019-02-16T10:03:27.943Z,38.20
2019-02-16T10:04:29.840Z,41.30
2019-02-16T10:05:28.945Z,37.80
2019-02-16T10:06:28.914Z,36.40
2019-02-16T10:07:30.503Z,35.40
2019-02-16T10:08:27.897Z,34.40
2019-02-16T10:09:28.891Z,36.20
2019-02-16T10:11:27.853Z,33.20
2019-02-16T10:12:28.854Z,37.50
2019-02-16T10:13:31.805Z,33.60
2019-02-16T10:14:28.847Z,41.10
2019-02-16T10:15:27.820Z,33.90
2019-02-16T10:16:28.805Z,34.40
2019-02-16T10:17:28.797Z,32.60
2019-02-16T10:18:28.803Z,35.10
2019-02-16T10:19:28.794Z,37.70
2019-02-16T10:20:31.307Z,35.00
2019-02-16T10:21:28.746Z,36.50
2019-02-16T10:22:28.741Z,37.80
2019-02-16T10:23:28.721Z,34.00
2019-02-16T10:24:28.750Z,36.70
2019-02-16T10:25:28.708Z,37.30
2019-02-16T10:26:28.720Z,35.20
2019-02-16T10:27:27.681Z,35.80
2019-02-16T10:28:28.674Z,36.40
2019-02-16T10:29:28.659Z,36.90
2019-02-16T10:30:29.306Z,36.00
2019-02-16T10:31:28.646Z,36.60
2019-02-16T10:32:28.679Z,34.00
2019-02-16T10:33:27.612Z,34.30
2019-02-16T10:34:28.608Z,35.30
2019-02-16T10:35:28.596Z,36.30
2019-02-16T10:36:29.262Z,38.00
2019-02-16T10:37:27.589Z,34.90
2019-02-16T10:38:28.557Z,31.40
2019-02-16T10:39:28.550Z,40.20
2019-02-16T10:40:28.530Z,32.80
2019-02-16T10:41:28.555Z,34.00
2019-02-16T10:42:28.521Z,32.80
2019-02-16T10:43:27.517Z,31.10
2019-02-16T10:44:28.507Z,29.80
2019-02-16T10:45:28.477Z,36.20
2019-02-16T10:46:28.471Z,31.00
2019-02-16T10:47:28.494Z,33.90
2019-02-16T10:48:28.446Z,37.30
2019-02-16T10:49:28.435Z,32.80
2019-02-16T10:50:28.428Z,32.60
2019-02-16T10:51:28.417Z,38.40
2019-02-16T10:52:27.412Z,30.00
2019-02-16T10:53:28.424Z,30.40
2019-02-16T10:54:29.722Z,31.90
2019-02-16T10:55:28.370Z,30.30
2019-02-16T10:56:28.356Z,34.40
2019-02-16T10:57:27.353Z,33.40
2019-02-16T10:58:31.802Z,32.70
2019-02-16T10:59:28.333Z,29.90
2019-02-16T11:00:28.312Z,31.80
2019-02-16T11:01:28.306Z,32.50
2019-02-16T11:02:28.304Z,28.00
2019-02-16T11:03:31.297Z,32.50
2019-02-16T11:04:27.281Z,32.30
2019-02-16T11:05:28.272Z,31.80
2019-02-16T11:06:28.257Z,33.00
2019-02-16T11:07:27.239Z,32.60
2019-02-16T11:08:27.228Z,37.60
2019-02-16T11:09:27.250Z,31.70
2019-02-16T11:10:28.212Z,31.40
2019-02-16T11:11:28.196Z,32.60
2019-02-16T11:12:28.189Z,30.20
2019-02-16T11:13:30.797Z,31.30
2019-02-16T11:14:28.162Z,29.90
2019-02-16T11:15:28.201Z,34.40
2019-02-16T11:16:28.157Z,32.10
2019-02-16T11:17:28.131Z,31.50
2019-02-16T11:18:28.115Z,29.60
2019-02-16T11:19:28.109Z,28.70
2019-02-16T11:20:28.100Z,31.50
2019-02-16T11:21:28.128Z,30.10
2019-02-16T11:22:28.076Z,33.70
2019-02-16T11:23:28.114Z,34.60
2019-02-16T11:24:35.848Z,37.40
2019-02-16T11:25:28.043Z,33.60
2019-02-16T11:26:28.028Z,29.90
2019-02-16T11:27:28.019Z,38.30
2019-02-16T11:28:27.013Z,33.00
2019-02-16T11:29:28.026Z,33.80
2019-02-16T11:30:27.999Z,30.40
2019-02-16T11:31:27.979Z,31.00
2019-02-16T11:32:27.966Z,30.50
2019-02-16T11:33:26.959Z,31.20
2019-02-16T11:34:27.969Z,33.50
2019-02-16T11:35:27.962Z,27.80
2019-02-16T11:36:27.916Z,29.30
2019-02-16T11:37:27.919Z,31.20
2019-02-16T11:38:27.907Z,34.30
2019-02-16T11:39:26.890Z,36.70
2019-02-16T11:40:27.896Z,29.10
2019-02-16T11:41:27.861Z,27.50
2019-02-16T11:42:27.866Z,29.70
2019-02-16T11:43:27.844Z,28.40
2019-02-16T11:44:27.782Z,29.30
2019-02-16T11:45:26.824Z,32.60
2019-02-16T11:46:27.819Z,31.10
2019-02-16T11:47:27.802Z,26.50
2019-02-16T11:48:27.790Z,28.50
2019-02-16T11:49:27.819Z,29.50
2019-02-16T11:50:27.815Z,30.70
2019-02-16T11:51:27.756Z,29.60
2019-02-16T11:52:27.744Z,35.30
2019-02-16T11:53:27.733Z,31.90
2019-02-16T11:54:26.723Z,27.10
2019-02-16T11:55:27.722Z,33.60
2019-02-16T11:56:27.729Z,35.40
2019-02-16T11:57:27.686Z,28.60
2019-02-16T11:58:26.683Z,33.30
2019-02-16T11:59:27.674Z,27.30
2019-02-16T12:00:27.656Z,33.10
2019-02-16T12:01:27.658Z,29.40
2019-02-16T12:02:27.659Z,33.20
2019-02-16T12:03:27.625Z,27.60
2019-02-16T12:04:27.610Z,31.90
2019-02-16T12:05:30.280Z,28.60
2019-02-16T12:06:27.624Z,29.60
2019-02-16T12:07:27.575Z,29.10
2019-02-16T12:08:27.563Z,26.80
2019-02-16T12:09:27.559Z,29.60
2019-02-16T12:10:27.544Z,27.80
2019-02-16T12:11:27.531Z,28.60
2019-02-16T12:12:27.554Z,29.50
2019-02-16T12:13:27.515Z,30.20
2019-02-16T12:14:27.521Z,30.40
2019-02-16T12:15:27.495Z,36.90
2019-02-16T12:16:27.477Z,28.20
2019-02-16T12:17:27.494Z,27.70
2019-02-16T12:18:27.458Z,24.30
2019-02-16T12:19:27.455Z,28.10
2019-02-16T12:20:33.482Z,29.40
2019-02-16T12:21:28.291Z,27.30
2019-02-16T12:22:27.448Z,27.40
2019-02-16T12:23:27.399Z,28.50
2019-02-16T12:24:27.397Z,23.70
2019-02-16T12:25:26.387Z,26.10
2019-02-16T12:26:27.368Z,23.70
2019-02-16T12:27:27.354Z,23.80
2019-02-16T12:28:26.395Z,23.20
2019-02-16T12:29:27.332Z,24.50
2019-02-16T12:30:27.330Z,24.40
2019-02-16T12:31:27.313Z,25.50
2019-02-16T12:32:27.304Z,22.50
2019-02-16T12:33:27.321Z,27.20
2019-02-16T12:34:27.285Z,23.80
2019-02-16T12:35:27.272Z,24.40
2019-02-16T12:36:27.255Z,26.20
2019-02-16T12:37:27.254Z,25.30
2019-02-16T12:38:27.240Z,24.30
2019-02-16T12:39:27.260Z,23.30
2019-02-16T12:40:27.214Z,23.40
2019-02-16T12:41:27.210Z,24.20
2019-02-16T12:42:27.198Z,26.80
2019-02-16T12:43:27.180Z,22.10
2019-02-16T12:44:27.209Z,22.20
2019-02-16T12:45:27.163Z,25.60
2019-02-16T12:46:27.152Z,23.10
2019-02-16T12:47:27.770Z,20.20
2019-02-16T12:48:27.142Z,25.30
2019-02-16T12:49:27.120Z,23.90
2019-02-16T12:50:27.172Z,23.40
2019-02-16T12:51:27.102Z,22.20
2019-02-16T12:52:26.090Z,23.20
2019-02-16T12:53:27.078Z,22.50
2019-02-16T12:54:26.076Z,20.10
2019-02-16T12:55:26.059Z,21.30
2019-02-16T12:56:27.074Z,23.00
2019-02-16T12:57:27.044Z,20.20
2019-02-16T12:58:26.026Z,26.20
2019-02-16T12:59:26.011Z,22.30
2019-02-16T13:00:27.009Z,21.30
2019-02-16T13:01:26.993Z,22.50
2019-02-16T13:02:27.025Z,18.60
2019-02-16T13:03:26.966Z,19.90
2019-02-16T13:04:26.960Z,19.80
2019-02-16T13:05:25.950Z,28.10
2019-02-16T13:06:26.949Z,23.40
2019-02-16T13:07:27.337Z,23.10